createdAt,value
2016-05-02T00:00:59.149Z,0
2016-05-02T00:01:59.168Z,0
2016-05-02T00:02:59.311Z,0
2016-05-02T00:03:59.174Z,0
2016-05-02T00:04:59.332Z,0
2016-05-02T00:05:59.460Z,0
2016-05-02T00:06:59.182Z,0
2016-05-02T00:07:59.184Z,0
2016-05-02T00:08:59.187Z,0
2016-05-02T00:09:59.190Z,0
2016-05-02T00:10:59.364Z,0
2016-05-02T00:11:59.367Z,0
2016-05-02T00:12:59.213Z,0
2016-05-02T00:13:59.231Z,0
2016-05-02T00:14:59.389Z,0
2016-05-02T00:15:59.393Z,0
2016-05-02T00:16:59.396Z,0
2016-05-02T00:17:59.242Z,0
2016-05-02T00:18:59.417Z,0
2016-05-02T00:19:59.434Z,0
2016-05-02T00:20:59.281Z,0
2016-05-02T00:21:59.268Z,0
2016-05-02T00:22:59.272Z,0
2016-05-02T00:23:59.414Z,0
2016-05-02T00:24:59.292Z,0
2016-05-02T00:25:59.311Z,0
2016-05-02T00:26:59.453Z,0
2016-05-02T00:27:59.455Z,0
2016-05-02T00:28:59.458Z,0
2016-05-02T00:29:59.462Z,0
2016-05-02T00:30:59.324Z,0
2016-05-02T00:31:59.483Z,0
2016-05-02T00:32:59.485Z,0
2016-05-02T00:33:59.488Z,0
2016-05-02T00:34:59.193Z,0
2016-05-02T00:35:59.509Z,0
2016-05-02T00:36:59.340Z,0
2016-05-02T00:37:59.374Z,0
2016-05-02T00:38:59.360Z,0
2016-05-02T00:39:59.363Z,0
2016-05-02T00:40:59.225Z,0
2016-05-02T00:41:59.526Z,0
2016-05-02T00:42:59.543Z,0
2016-05-02T00:43:59.406Z,0
2016-05-02T00:44:59.548Z,0
2016-05-02T00:45:59.567Z,0
2016-05-02T00:46:59.570Z,0
2016-05-02T00:47:59.416Z,0
2016-05-02T00:48:59.575Z,0
2016-05-02T00:49:59.422Z,0
2016-05-02T00:51:01.612Z,0
2016-05-02T00:51:59.442Z,0
2016-05-02T00:52:59.430Z,0
2016-05-02T00:53:59.448Z,0
2016-05-02T00:54:59.607Z,0
2016-05-02T00:55:59.610Z,0
2016-05-02T00:56:59.613Z,0
2016-05-02T00:57:59.458Z,0
2016-05-02T00:58:59.618Z,0
2016-05-02T00:59:59.480Z,0
2016-05-02T01:00:59.482Z,0
2016-05-02T01:01:59.641Z,0
2016-05-02T01:02:59.622Z,0
2016-05-02T01:03:59.700Z,0
2016-05-02T01:04:59.607Z,0
2016-05-02T01:05:59.669Z,0
2016-05-02T01:06:59.715Z,0
2016-05-02T01:07:59.944Z,0
2016-05-02T01:08:59.916Z,0
2016-05-02T01:09:59.779Z,0
2016-05-02T01:10:59.969Z,0
2016-05-02T01:11:59.832Z,0
2016-05-02T01:13:00.005Z,0
2016-05-02T01:13:59.857Z,0
2016-05-02T01:15:00.021Z,0
2016-05-02T01:15:59.905Z,0
2016-05-02T01:17:00.055Z,0
2016-05-02T01:18:00.046Z,0
2016-05-02T01:19:00.067Z,0
2016-05-02T01:19:59.774Z,0
2016-05-02T01:21:00.342Z,0
2016-05-02T01:22:00.096Z,0
2016-05-02T01:22:59.944Z,0
2016-05-02T01:24:00.104Z,0
2016-05-02T01:24:59.795Z,0
2016-05-02T01:25:59.830Z,0
2016-05-02T01:26:59.957Z,0
2016-05-02T01:28:00.118Z,0
2016-05-02T01:29:00.136Z,0
2016-05-02T01:29:59.983Z,0
2016-05-02T01:31:00.002Z,0
2016-05-02T01:32:00.599Z,0
2016-05-02T01:32:59.992Z,0
2016-05-02T01:34:00.167Z,0
2016-05-02T01:35:00.029Z,0
2016-05-02T01:36:00.828Z,0
2016-05-02T01:37:00.019Z,0
2016-05-02T01:38:00.178Z,0
2016-05-02T01:39:00.056Z,0
2016-05-02T01:40:00.027Z,0
2016-05-02T01:41:00.061Z,0
2016-05-02T01:42:00.047Z,0
2016-05-02T01:43:00.050Z,0
2016-05-02T01:44:00.225Z,0
2016-05-02T01:45:00.056Z,0
2016-05-02T01:46:00.246Z,0
2016-05-02T01:47:00.233Z,0
2016-05-02T01:48:00.096Z,0
2016-05-02T01:49:00.238Z,0
2016-05-02T01:50:00.257Z,0
2016-05-02T01:51:00.900Z,0
2016-05-02T01:52:00.263Z,0
2016-05-02T01:53:00.109Z,0
2016-05-02T01:54:00.252Z,0
2016-05-02T01:55:00.285Z,0
2016-05-02T01:56:00.304Z,0
2016-05-02T01:57:00.291Z,0
2016-05-02T01:58:00.279Z,0
2016-05-02T01:59:00.312Z,0
2016-05-02T02:00:00.143Z,0
2016-05-02T02:01:00.302Z,0
2016-05-02T02:02:00.164Z,0
2016-05-02T02:03:00.323Z,0
2016-05-02T02:04:00.029Z,0
2016-05-02T02:05:00.328Z,0
2016-05-02T02:06:00.237Z,0
2016-05-02T02:07:00.350Z,0
2016-05-02T02:08:00.336Z,0
2016-05-02T02:09:00.198Z,0
2016-05-02T02:10:00.358Z,0
2016-05-02T02:11:00.360Z,0
2016-05-02T02:12:00.206Z,0
2016-05-02T02:13:00.366Z,0
2016-05-02T02:14:00.228Z,0
2016-05-02T02:15:00.402Z,0
2016-05-02T02:16:00.249Z,0
2016-05-02T02:17:00.094Z,0
2016-05-02T02:18:00.394Z,0
2016-05-02T02:19:00.257Z,0
2016-05-02T02:20:00.416Z,0
2016-05-02T02:21:00.418Z,0
2016-05-02T02:22:00.421Z,0
2016-05-02T02:23:00.440Z,0
2016-05-02T02:24:00.547Z,0
2016-05-02T02:25:00.699Z,0
2016-05-02T02:26:00.327Z,0
2016-05-02T02:27:00.835Z,0
2016-05-02T02:28:00.573Z,0
2016-05-02T02:29:00.357Z,0
2016-05-02T02:30:00.312Z,0
2016-05-02T02:31:00.346Z,0
2016-05-02T02:32:00.318Z,0
2016-05-02T02:33:00.493Z,0
2016-05-02T02:34:00.339Z,0
2016-05-02T02:35:00.498Z,0
2016-05-02T02:36:00.219Z,0
2016-05-02T02:37:00.503Z,0
2016-05-02T02:38:00.506Z,0
2016-05-02T02:39:00.508Z,0
2016-05-02T02:40:00.527Z,0
2016-05-02T02:41:00.389Z,0
2016-05-02T02:42:00.376Z,0
2016-05-02T02:43:00.550Z,0
2016-05-02T02:44:00.553Z,0
2016-05-02T02:45:00.540Z,0
2016-05-02T02:46:00.574Z,0
2016-05-02T02:47:00.561Z,0
2016-05-02T02:48:00.549Z,0
2016-05-02T02:49:00.426Z,0
2016-05-02T02:50:00.444Z,0
2016-05-02T02:51:01.353Z,0
2016-05-02T02:52:00.435Z,0
2016-05-02T02:53:00.421Z,0
2016-05-02T02:54:00.580Z,0
2016-05-02T02:55:00.458Z,0
2016-05-02T02:56:00.304Z,0
2016-05-02T02:57:00.619Z,0
2016-05-02T02:58:00.465Z,0
2016-05-02T02:59:00.640Z,0
2016-05-02T03:00:00.472Z,0
2016-05-02T03:01:00.474Z,0
2016-05-02T03:02:00.476Z,0
2016-05-02T03:03:00.667Z,0
2016-05-02T03:04:00.654Z,0
2016-05-02T03:05:00.345Z,0
2016-05-02T03:06:02.316Z,0
2016-05-02T03:07:00.662Z,0
2016-05-02T03:08:00.681Z,0
2016-05-02T03:09:00.684Z,0
2016-05-02T03:10:00.529Z,0
2016-05-02T03:11:00.564Z,0
2016-05-02T03:12:00.551Z,0
2016-05-02T03:13:00.554Z,0
2016-05-02T03:14:00.712Z,0
2016-05-02T03:15:00.714Z,0
2016-05-02T03:16:00.717Z,0
2016-05-02T03:17:00.408Z,0
2016-05-02T03:18:00.442Z,0
2016-05-02T03:19:00.741Z,0
2016-05-02T03:20:00.728Z,0
2016-05-02T03:21:02.152Z,0
2016-05-02T03:22:00.766Z,0
2016-05-02T03:23:00.611Z,0
2016-05-02T03:24:00.771Z,0
2016-05-02T03:25:00.679Z,0
2016-05-02T03:26:00.494Z,0
2016-05-02T03:27:00.779Z,0
2016-05-02T03:28:00.781Z,0
2016-05-02T03:29:00.487Z,0
2016-05-02T03:30:00.646Z,0
2016-05-02T03:31:00.649Z,0
2016-05-02T03:32:00.682Z,0
2016-05-02T03:33:00.826Z,0
2016-05-02T03:34:00.500Z,0
2016-05-02T03:35:00.878Z,0
2016-05-02T03:36:02.224Z,0
2016-05-02T03:37:00.571Z,0
2016-05-02T03:38:00.839Z,0
2016-05-02T03:39:00.842Z,0
2016-05-02T03:40:00.704Z,0
2016-05-02T03:41:00.956Z,0
2016-05-02T03:42:00.850Z,0
2016-05-02T03:43:00.711Z,0
2016-05-02T03:44:00.730Z,0
2016-05-02T03:45:00.889Z,0
2016-05-02T03:46:00.720Z,0
2016-05-02T03:47:00.895Z,0
2016-05-02T03:48:00.725Z,0
2016-05-02T03:49:00.900Z,0
2016-05-02T03:50:00.746Z,0
2016-05-02T03:51:01.624Z,0
2016-05-02T03:52:00.596Z,0
2016-05-02T03:53:00.927Z,0
2016-05-02T03:54:00.929Z,0
2016-05-02T03:55:00.791Z,0
2016-05-02T03:56:00.935Z,0
2016-05-02T03:57:00.953Z,0
2016-05-02T03:58:00.925Z,0
2016-05-02T03:59:00.818Z,0
2016-05-02T04:00:00.961Z,0
2016-05-02T04:01:00.948Z,0
2016-05-02T04:02:00.669Z,0
2016-05-02T04:03:01.016Z,0
2016-05-02T04:04:00.847Z,0
2016-05-02T04:05:00.990Z,0
2016-05-02T04:06:00.884Z,0
2016-05-02T04:07:00.840Z,0
2016-05-02T04:08:00.998Z,0
2016-05-02T04:09:01.001Z,0
2016-05-02T04:10:01.019Z,5
2016-05-02T04:11:01.006Z,5
2016-05-02T04:12:00.884Z,5
2016-05-02T04:13:00.903Z,5
2016-05-02T04:14:00.889Z,5
2016-05-02T04:15:01.048Z,5
2016-05-02T04:16:01.051Z,5
2016-05-02T04:17:01.053Z,5
2016-05-02T04:18:01.056Z,5
2016-05-02T04:19:00.903Z,5
2016-05-02T04:20:01.077Z,5
2016-05-02T04:21:00.799Z,10
2016-05-02T04:22:00.927Z,10
2016-05-02T04:23:00.929Z,10
2016-05-02T04:24:00.947Z,10
2016-05-02T04:25:01.091Z,10
2016-05-02T04:26:00.937Z,10
2016-05-02T04:27:01.096Z,10
2016-05-02T04:28:00.943Z,10
2016-05-02T04:29:00.976Z,10
2016-05-02T04:30:01.135Z,15
2016-05-02T04:31:01.122Z,15
2016-05-02T04:32:01.140Z,15
2016-05-02T04:33:01.127Z,15
2016-05-02T04:34:01.146Z,15
2016-05-02T04:35:00.993Z,15
2016-05-02T04:36:02.448Z,20
2016-05-02T04:37:01.185Z,20
2016-05-02T04:38:01.173Z,20
2016-05-02T04:39:01.019Z,20
2016-05-02T04:40:01.178Z,20
2016-05-02T04:41:01.180Z,20
2016-05-02T04:42:00.730Z,25
2016-05-02T04:43:01.046Z,25
2016-05-02T04:44:01.048Z,30
2016-05-02T04:45:01.192Z,40
2016-05-02T04:46:01.209Z,55
2016-05-02T04:47:01.072Z,60
2016-05-02T04:48:00.918Z,65
2016-05-02T04:49:01.233Z,70
2016-05-02T04:50:01.220Z,70
2016-05-02T04:51:00.989Z,75
2016-05-02T04:52:01.100Z,75
2016-05-02T04:53:01.260Z,80
2016-05-02T04:54:01.106Z,90
2016-05-02T04:55:00.796Z,95
2016-05-02T04:56:01.111Z,100
2016-05-02T04:57:01.114Z,105
2016-05-02T04:58:01.274Z,105
2016-05-02T04:59:01.151Z,110
2016-05-02T05:00:01.294Z,115
2016-05-02T05:01:01.297Z,120
2016-05-02T05:02:01.159Z,125
2016-05-02T05:03:01.333Z,130
2016-05-02T05:04:01.165Z,135
2016-05-02T05:05:01.167Z,145
2016-05-02T05:06:01.466Z,150
2016-05-02T05:07:01.329Z,150
2016-05-02T05:08:01.332Z,150
2016-05-02T05:09:01.210Z,150
2016-05-02T05:10:01.056Z,155
2016-05-02T05:11:01.215Z,160
2016-05-02T05:12:01.217Z,165
2016-05-02T05:13:01.376Z,170
2016-05-02T05:14:01.238Z,180
2016-05-02T05:15:01.382Z,180
2016-05-02T05:16:01.243Z,180
2016-05-02T05:17:01.246Z,185
2016-05-02T05:18:01.421Z,195
2016-05-02T05:19:01.267Z,200
2016-05-02T05:20:01.442Z,205
2016-05-02T05:21:02.053Z,205
2016-05-02T05:22:01.306Z,200
2016-05-02T05:23:01.450Z,205
2016-05-02T05:24:01.297Z,205
2016-05-02T05:25:01.486Z,220
2016-05-02T05:26:01.458Z,225
2016-05-02T05:27:01.477Z,230
2016-05-02T05:28:01.494Z,240
2016-05-02T05:29:01.482Z,250
2016-05-02T05:30:01.500Z,260
2016-05-02T05:31:01.519Z,265
2016-05-02T05:32:01.505Z,275
2016-05-02T05:33:01.524Z,275
2016-05-02T05:34:01.385Z,290
2016-05-02T05:35:01.404Z,300
2016-05-02T05:36:01.235Z,310
2016-05-02T05:37:01.565Z,315
2016-05-02T05:38:01.568Z,320
2016-05-02T05:39:01.415Z,330
2016-05-02T05:40:01.573Z,340
2016-05-02T05:41:01.593Z,350
2016-05-02T05:42:01.438Z,360
2016-05-02T05:43:01.597Z,375
2016-05-02T05:44:01.600Z,385
2016-05-02T05:45:01.462Z,385
2016-05-02T05:46:01.621Z,370
2016-05-02T05:47:01.623Z,345
2016-05-02T05:48:01.642Z,315
2016-05-02T05:49:01.364Z,295
2016-05-02T05:50:01.351Z,320
2016-05-02T05:51:01.587Z,345
2016-05-02T05:52:01.356Z,365
2016-05-02T05:53:01.546Z,315
2016-05-02T05:54:01.705Z,280
2016-05-02T05:55:01.536Z,260
2016-05-02T05:56:01.711Z,250
2016-05-02T05:57:01.714Z,230
2016-05-02T05:58:01.716Z,290
2016-05-02T05:59:01.733Z,295
2016-05-02T06:00:01.580Z,385
2016-05-02T06:01:01.739Z,385
2016-05-02T06:02:01.602Z,345
2016-05-02T06:03:01.760Z,345
2016-05-02T06:04:01.607Z,435
2016-05-02T06:05:01.625Z,495
2016-05-02T06:06:01.502Z,505
2016-05-02T06:07:01.646Z,475
2016-05-02T06:08:01.649Z,420
2016-05-02T06:09:01.808Z,405
2016-05-02T06:10:01.811Z,350
2016-05-02T06:11:01.673Z,320
2016-05-02T06:12:01.831Z,330
2016-05-02T06:13:01.709Z,400
2016-05-02T06:14:01.853Z,465
2016-05-02T06:15:01.855Z,475
2016-05-02T06:16:01.858Z,530
2016-05-02T06:17:01.876Z,610
2016-05-02T06:18:01.895Z,620
2016-05-02T06:19:01.881Z,615
2016-05-02T06:20:01.931Z,620
2016-05-02T06:21:01.933Z,580
2016-05-02T06:22:01.764Z,585
2016-05-02T06:23:01.991Z,630
2016-05-02T06:24:01.930Z,650
2016-05-02T06:25:01.794Z,630
2016-05-02T06:26:01.952Z,645
2016-05-02T06:27:01.814Z,655
2016-05-02T06:28:01.816Z,665
2016-05-02T06:29:01.976Z,675
2016-05-02T06:30:01.838Z,675
2016-05-02T06:31:01.841Z,670
2016-05-02T06:32:01.874Z,670
2016-05-02T06:33:01.862Z,685
2016-05-02T06:34:01.880Z,700
2016-05-02T06:35:02.038Z,715
2016-05-02T06:36:03.027Z,735
2016-05-02T06:37:01.904Z,745
2016-05-02T06:38:01.907Z,755
2016-05-02T06:39:02.065Z,775
2016-05-02T06:40:02.084Z,780
2016-05-02T06:41:02.087Z,775
2016-05-02T06:42:02.105Z,775
2016-05-02T06:43:01.967Z,795
2016-05-02T06:44:02.126Z,805
2016-05-02T06:45:02.128Z,815
2016-05-02T06:46:02.131Z,840
2016-05-02T06:47:02.164Z,840
2016-05-02T06:48:02.153Z,850
2016-05-02T06:49:02.155Z,850
2016-05-02T06:50:02.173Z,825
2016-05-02T06:51:02.192Z,805
2016-05-02T06:52:02.053Z,790
2016-05-02T06:53:02.040Z,830
2016-05-02T06:54:02.058Z,860
2016-05-02T06:55:02.217Z,865
2016-05-02T06:56:02.236Z,905
2016-05-02T06:57:02.269Z,915
2016-05-02T06:58:02.241Z,900
2016-05-02T06:59:02.260Z,955
2016-05-02T07:00:02.278Z,965
2016-05-02T07:01:02.280Z,1005
2016-05-02T07:02:02.283Z,995
2016-05-02T07:03:02.302Z,945
2016-05-02T07:04:02.305Z,935
2016-05-02T07:05:02.307Z,940
2016-05-02T07:06:02.638Z,985
2016-05-02T07:07:02.188Z,1015
2016-05-02T07:08:02.190Z,1050
2016-05-02T07:09:02.224Z,1070
2016-05-02T07:10:02.368Z,1055
2016-05-02T07:11:02.385Z,1055
2016-05-02T07:12:02.388Z,1055
2016-05-02T07:13:02.407Z,1035
2016-05-02T07:14:02.409Z,1010
2016-05-02T07:15:02.256Z,1000
2016-05-02T07:16:02.430Z,1010
2016-05-02T07:17:02.449Z,855
2016-05-02T07:18:02.295Z,445
2016-05-02T07:19:02.454Z,180
2016-05-02T07:20:02.488Z,135
2016-05-02T07:21:03.381Z,130
2016-05-02T07:22:02.494Z,125
2016-05-02T07:23:02.339Z,125
2016-05-02T07:24:02.515Z,125
2016-05-02T07:25:02.517Z,125
2016-05-02T07:26:02.380Z,125
2016-05-02T07:27:02.554Z,125
2016-05-02T07:28:02.416Z,125
2016-05-02T07:29:02.388Z,125
2016-05-02T07:30:02.561Z,120
2016-05-02T07:31:02.252Z,120
2016-05-02T07:32:02.410Z,120
2016-05-02T07:33:02.585Z,120
2016-05-02T07:34:02.588Z,120
2016-05-02T07:35:02.450Z,120
2016-05-02T07:36:02.906Z,120
2016-05-02T07:37:02.471Z,120
2016-05-02T07:38:02.473Z,120
2016-05-02T07:39:02.633Z,120
2016-05-02T07:40:02.651Z,120
2016-05-02T07:41:02.185Z,120
2016-05-02T07:42:02.657Z,120
2016-05-02T07:43:02.676Z,120
2016-05-02T07:44:02.662Z,120
2016-05-02T07:45:02.665Z,115
2016-05-02T07:46:02.684Z,115
2016-05-02T07:47:02.561Z,115
2016-05-02T07:48:02.704Z,115
2016-05-02T07:49:02.550Z,115
2016-05-02T07:50:02.740Z,115
2016-05-02T07:51:03.587Z,115
2016-05-02T07:52:02.762Z,115
2016-05-02T07:53:02.733Z,115
2016-05-02T07:54:02.751Z,115
2016-05-02T07:55:02.753Z,115
2016-05-02T07:56:02.600Z,115
2016-05-02T07:57:02.478Z,115
2016-05-02T07:58:02.778Z,115
2016-05-02T07:59:02.780Z,115
2016-05-02T08:00:02.611Z,115
2016-05-02T08:01:02.786Z,115
2016-05-02T08:02:02.491Z,115
2016-05-02T08:03:02.650Z,115
2016-05-02T08:04:02.810Z,115
2016-05-02T08:05:02.655Z,115
2016-05-02T08:06:02.690Z,115
2016-05-02T08:07:02.818Z,115
2016-05-02T08:08:02.680Z,115
2016-05-02T08:09:02.855Z,115
2016-05-02T08:10:02.700Z,115
2016-05-02T08:11:02.704Z,115
2016-05-02T08:12:02.878Z,115
2016-05-02T08:13:02.709Z,115
2016-05-02T08:14:02.884Z,110
2016-05-02T08:15:02.902Z,110
2016-05-02T08:16:02.592Z,110
2016-05-02T08:17:02.906Z,110
2016-05-02T08:18:02.909Z,110
2016-05-02T08:19:02.912Z,110
2016-05-02T08:20:02.915Z,110
2016-05-02T08:21:02.637Z,110
2016-05-02T08:22:02.936Z,110
2016-05-02T08:23:02.938Z,110
2016-05-02T08:24:02.801Z,110
2016-05-02T08:25:02.959Z,110
2016-05-02T08:26:02.962Z,110
2016-05-02T08:27:02.825Z,110
2016-05-02T08:28:02.983Z,110
2016-05-02T08:29:02.830Z,110
2016-05-02T08:30:03.005Z,110
2016-05-02T08:31:02.835Z,110
2016-05-02T08:32:02.853Z,110
2016-05-02T08:33:02.856Z,110
2016-05-02T08:34:02.858Z,105
2016-05-02T08:35:03.018Z,105
2016-05-02T08:36:03.036Z,105
2016-05-02T08:37:03.429Z,105
2016-05-02T08:38:02.745Z,110
2016-05-02T08:39:03.044Z,130
2016-05-02T08:40:03.062Z,130
2016-05-02T08:41:03.049Z,130
2016-05-02T08:42:03.068Z,130
2016-05-02T08:43:03.071Z,130
2016-05-02T08:44:03.073Z,130
2016-05-02T08:45:03.107Z,130
2016-05-02T08:46:03.079Z,130
2016-05-02T08:47:03.082Z,130
2016-05-02T08:48:03.084Z,135
2016-05-02T08:49:02.946Z,140
2016-05-02T08:50:03.026Z,140
2016-05-02T08:51:03.092Z,140
2016-05-02T08:52:03.095Z,140
2016-05-02T08:53:03.098Z,140
2016-05-02T08:54:03.100Z,140
2016-05-02T08:55:03.118Z,140
2016-05-02T08:56:02.965Z,140
2016-05-02T08:57:03.109Z,140
2016-05-02T08:58:03.142Z,140
2016-05-02T08:59:02.973Z,140
2016-05-02T09:00:03.117Z,140
2016-05-02T09:01:03.135Z,140
2016-05-02T09:02:02.966Z,140
2016-05-02T09:03:02.984Z,140
2016-05-02T09:04:03.143Z,135
2016-05-02T09:05:02.989Z,130
2016-05-02T09:06:03.383Z,130
2016-05-02T09:07:03.010Z,135
2016-05-02T09:08:03.169Z,140
2016-05-02T09:09:03.172Z,145
2016-05-02T09:10:03.159Z,140
2016-05-02T09:11:03.162Z,135
2016-05-02T09:12:03.210Z,130
2016-05-02T09:13:03.198Z,125
2016-05-02T09:14:05.576Z,125
2016-05-02T09:15:03.203Z,130
2016-05-02T09:16:03.050Z,125
2016-05-02T09:17:03.209Z,125
2016-05-02T09:18:03.212Z,125
2016-05-02T09:19:03.214Z,130
2016-05-02T09:20:03.217Z,135
2016-05-02T09:21:03.064Z,135
2016-05-02T09:22:03.223Z,135
2016-05-02T09:23:03.069Z,140
2016-05-02T09:24:03.243Z,140
2016-05-02T09:25:03.089Z,135
2016-05-02T09:26:03.078Z,135
2016-05-02T09:27:03.142Z,135
2016-05-02T09:28:03.098Z,135
2016-05-02T09:29:03.101Z,135
2016-05-02T09:30:03.306Z,130
2016-05-02T09:31:03.261Z,135
2016-05-02T09:32:03.264Z,130
2016-05-02T09:33:03.128Z,130
2016-05-02T09:34:03.286Z,130
2016-05-02T09:35:03.288Z,125
2016-05-02T09:36:03.605Z,125
2016-05-02T09:37:03.169Z,125
2016-05-02T09:38:03.327Z,125
2016-05-02T09:39:03.159Z,130
2016-05-02T09:40:03.177Z,130
2016-05-02T09:41:03.210Z,130
2016-05-02T09:42:03.183Z,130
2016-05-02T09:43:03.169Z,130
2016-05-02T09:44:03.187Z,130
2016-05-02T09:45:03.175Z,130
2016-05-02T09:46:03.396Z,125
2016-05-02T09:47:03.352Z,125
2016-05-02T09:48:03.340Z,125
2016-05-02T09:49:03.185Z,125
2016-05-02T09:50:03.345Z,125
2016-05-02T09:51:03.347Z,125
2016-05-02T09:52:03.382Z,125
2016-05-02T09:53:03.353Z,125
2016-05-02T09:54:03.371Z,125
2016-05-02T09:55:03.201Z,125
2016-05-02T09:56:03.361Z,125
2016-05-02T09:57:03.363Z,125
2016-05-02T09:58:03.366Z,120
2016-05-02T09:59:03.369Z,120
2016-05-02T10:00:03.371Z,120
2016-05-02T10:01:03.374Z,120
2016-05-02T10:02:03.392Z,120
2016-05-02T10:03:03.395Z,120
2016-05-02T10:04:03.398Z,120
2016-05-02T10:05:03.385Z,120
2016-05-02T10:06:03.950Z,120
2016-05-02T10:07:03.437Z,120
2016-05-02T10:08:03.252Z,120
2016-05-02T10:09:03.272Z,115
2016-05-02T10:10:03.458Z,115
2016-05-02T10:11:03.519Z,115
2016-05-02T10:12:03.565Z,115
2016-05-02T10:13:03.611Z,115
2016-05-02T10:14:03.646Z,115
2016-05-02T10:15:03.367Z,110
2016-05-02T10:16:03.715Z,110
2016-05-02T10:17:03.561Z,110
2016-05-02T10:18:03.813Z,110
2016-05-02T10:19:03.594Z,110
2016-05-02T10:20:03.758Z,115
2016-05-02T10:21:04.204Z,115
2016-05-02T10:22:04.259Z,110
2016-05-02T10:23:03.596Z,110
2016-05-02T10:24:03.790Z,110
2016-05-02T10:25:03.639Z,110
2016-05-02T10:26:03.800Z,110
2016-05-02T10:27:03.633Z,110
2016-05-02T10:28:03.856Z,110
2016-05-02T10:29:03.798Z,110
2016-05-02T10:30:03.661Z,110
2016-05-02T10:31:03.789Z,110
2016-05-02T10:32:03.808Z,110
2016-05-02T10:33:03.889Z,110
2016-05-02T10:34:03.799Z,110
2016-05-02T10:35:03.817Z,110
2016-05-02T10:36:03.663Z,110
2016-05-02T10:37:03.839Z,110
2016-05-02T10:38:03.888Z,110
2016-05-02T10:39:03.656Z,110
2016-05-02T10:40:03.362Z,110
2016-05-02T10:41:03.833Z,110
2016-05-02T10:42:03.680Z,110
2016-05-02T10:43:03.917Z,110
2016-05-02T10:44:03.685Z,110
2016-05-02T10:45:03.532Z,110
2016-05-02T10:46:03.831Z,110
2016-05-02T10:47:03.849Z,110
2016-05-02T10:48:03.867Z,110
2016-05-02T10:49:03.855Z,105
2016-05-02T10:50:03.873Z,105
2016-05-02T10:51:04.329Z,110
2016-05-02T10:52:03.753Z,105
2016-05-02T10:53:03.865Z,105
2016-05-02T10:54:03.900Z,105
2016-05-02T10:55:03.886Z,105
2016-05-02T10:56:03.592Z,105
2016-05-02T10:57:03.751Z,105
2016-05-02T10:58:03.754Z,105
2016-05-02T10:59:03.757Z,105
2016-05-02T11:00:03.900Z,105
2016-05-02T11:01:03.778Z,105
2016-05-02T11:02:03.921Z,100
2016-05-02T11:03:03.924Z,100
2016-05-02T11:04:03.942Z,100
2016-05-02T11:05:03.914Z,100
2016-05-02T11:06:04.042Z,100
2016-05-02T11:07:04.310Z,100
2016-05-02T11:08:03.781Z,100
2016-05-02T11:09:03.940Z,95
2016-05-02T11:10:03.802Z,95
2016-05-02T11:11:03.804Z,95
2016-05-02T11:12:03.963Z,95
2016-05-02T11:13:03.967Z,95
2016-05-02T11:14:03.969Z,95
2016-05-02T11:15:03.972Z,95
2016-05-02T11:16:03.834Z,90
2016-05-02T11:17:03.993Z,90
2016-05-02T11:18:03.980Z,90
2016-05-02T11:19:03.998Z,90
2016-05-02T11:20:04.016Z,95
2016-05-02T11:21:04.035Z,95
2016-05-02T11:22:03.865Z,95
2016-05-02T11:23:04.032Z,95
2016-05-02T11:24:03.723Z,95
2016-05-02T11:25:03.898Z,95
2016-05-02T11:26:03.728Z,90
2016-05-02T11:27:04.043Z,90
2016-05-02T11:28:03.889Z,90
2016-05-02T11:29:03.908Z,90
2016-05-02T11:30:03.895Z,90
2016-05-02T11:31:04.069Z,90
2016-05-02T11:32:03.917Z,90
2016-05-02T11:33:04.075Z,90
2016-05-02T11:34:03.922Z,90
2016-05-02T11:35:03.939Z,90
2016-05-02T11:36:04.098Z,90
2016-05-02T11:37:04.211Z,90
2016-05-02T11:38:04.104Z,90
2016-05-02T11:39:03.950Z,90
2016-05-02T11:40:04.109Z,85
2016-05-02T11:41:03.987Z,85
2016-05-02T11:42:04.146Z,85
2016-05-02T11:43:04.116Z,85
2016-05-02T11:44:03.980Z,85
2016-05-02T11:45:03.997Z,85
2016-05-02T11:46:04.172Z,85
2016-05-02T11:47:04.160Z,85
2016-05-02T11:48:04.162Z,85
2016-05-02T11:49:04.149Z,85
2016-05-02T11:50:04.027Z,85
2016-05-02T11:51:04.045Z,85
2016-05-02T11:52:04.173Z,85
2016-05-02T11:53:04.191Z,80
2016-05-02T11:54:04.193Z,80
2016-05-02T11:55:04.196Z,80
2016-05-02T11:56:04.043Z,80
2016-05-02T11:57:04.217Z,80
2016-05-02T11:58:04.204Z,80
2016-05-02T11:59:04.067Z,80
2016-05-02T12:00:04.226Z,80
2016-05-02T12:01:04.087Z,80
2016-05-02T12:02:04.247Z,80
2016-05-02T12:03:04.078Z,80
2016-05-02T12:04:04.253Z,85
2016-05-02T12:05:04.255Z,80
2016-05-02T12:06:04.117Z,80
2016-05-02T12:07:04.261Z,80
2016-05-02T12:08:04.123Z,75
2016-05-02T12:09:04.109Z,80
2016-05-02T12:10:04.284Z,75
2016-05-02T12:11:04.286Z,75
2016-05-02T12:12:04.149Z,75
2016-05-02T12:13:04.167Z,75
2016-05-02T12:14:04.155Z,75
2016-05-02T12:15:04.172Z,75
2016-05-02T12:16:04.299Z,75
2016-05-02T12:17:04.318Z,75
2016-05-02T12:18:04.305Z,75
2016-05-02T12:19:04.168Z,75
2016-05-02T12:20:04.327Z,75
2016-05-02T12:21:04.173Z,75
2016-05-02T12:22:04.316Z,75
2016-05-02T12:23:04.178Z,75
2016-05-02T12:24:04.337Z,75
2016-05-02T12:25:04.198Z,75
2016-05-02T12:26:04.187Z,75
2016-05-02T12:27:04.345Z,75
2016-05-02T12:28:04.363Z,75
2016-05-02T12:29:04.194Z,75
2016-05-02T12:30:04.368Z,75
2016-05-02T12:31:04.215Z,75
2016-05-02T12:32:04.373Z,75
2016-05-02T12:33:04.377Z,75
2016-05-02T12:34:04.395Z,75
2016-05-02T12:35:04.397Z,70
2016-05-02T12:36:04.245Z,70
2016-05-02T12:37:04.622Z,70
2016-05-02T12:38:04.437Z,70
2016-05-02T12:39:04.425Z,70
2016-05-02T12:40:04.270Z,70
2016-05-02T12:41:04.430Z,70
2016-05-02T12:42:04.432Z,70
2016-05-02T12:43:04.435Z,70
2016-05-02T12:44:04.125Z,70
2016-05-02T12:45:04.441Z,70
2016-05-02T12:46:04.443Z,70
2016-05-02T12:47:04.446Z,70
2016-05-02T12:48:04.166Z,70
2016-05-02T12:49:04.452Z,65
2016-05-02T12:50:04.297Z,65
2016-05-02T12:51:05.035Z,65
2016-05-02T12:52:04.460Z,65
2016-05-02T12:53:04.509Z,65
2016-05-02T12:54:04.308Z,65
2016-05-02T12:55:04.482Z,65
2016-05-02T12:56:04.329Z,65
2016-05-02T12:57:04.332Z,65
2016-05-02T12:58:04.491Z,65
2016-05-02T12:59:04.479Z,65
2016-05-02T13:00:04.512Z,65
2016-05-02T13:01:04.343Z,65
2016-05-02T13:02:04.362Z,65
2016-05-02T13:03:04.364Z,65
2016-05-02T13:04:04.367Z,65
2016-05-02T13:05:04.526Z,65
2016-05-02T13:06:04.545Z,65
2016-05-02T13:07:04.406Z,65
2016-05-02T13:08:04.237Z,65
2016-05-02T13:09:04.567Z,65
2016-05-02T13:10:04.414Z,65
2016-05-02T13:11:04.541Z,60
2016-05-02T13:12:04.247Z,60
2016-05-02T13:13:04.406Z,60
2016-05-02T13:14:04.409Z,60
2016-05-02T13:15:04.569Z,60
2016-05-02T13:16:04.571Z,60
2016-05-02T13:17:04.433Z,60
2016-05-02T13:18:04.577Z,60
2016-05-02T13:19:04.500Z,60
2016-05-02T13:20:04.441Z,60
2016-05-02T13:21:04.319Z,60
2016-05-02T13:22:05.008Z,60
2016-05-02T13:23:04.605Z,60
2016-05-02T13:24:04.607Z,60
2016-05-02T13:25:04.626Z,60
2016-05-02T13:26:04.629Z,60
2016-05-02T13:27:04.476Z,60
2016-05-02T13:28:04.619Z,60
2016-05-02T13:29:04.652Z,60
2016-05-02T13:30:04.670Z,60
2016-05-02T13:31:04.658Z,60
2016-05-02T13:32:04.504Z,60
2016-05-02T13:33:04.663Z,60
2016-05-02T13:34:04.665Z,60
2016-05-02T13:35:04.669Z,60
2016-05-02T13:36:04.686Z,60
2016-05-02T13:37:08.220Z,60
2016-05-02T13:38:04.537Z,60
2016-05-02T13:39:04.711Z,60
2016-05-02T13:40:04.542Z,60
2016-05-02T13:41:04.732Z,60
2016-05-02T13:42:04.578Z,60
2016-05-02T13:43:04.565Z,60
2016-05-02T13:44:04.724Z,60
2016-05-02T13:45:04.727Z,60
2016-05-02T13:46:04.448Z,55
2016-05-02T13:47:04.591Z,60
2016-05-02T13:48:04.578Z,55
2016-05-02T13:49:04.753Z,60
2016-05-02T13:50:04.599Z,60
2016-05-02T13:51:04.618Z,60
2016-05-02T13:52:04.574Z,60
2016-05-02T13:53:04.763Z,60
2016-05-02T13:54:04.782Z,60
2016-05-02T13:55:04.785Z,60
2016-05-02T13:56:04.772Z,55
2016-05-02T13:57:04.774Z,60
2016-05-02T13:58:04.637Z,55
2016-05-02T13:59:04.796Z,55
2016-05-02T14:00:04.658Z,55
2016-05-02T14:01:04.801Z,55
2016-05-02T14:02:04.820Z,55
2016-05-02T14:03:04.666Z,55
2016-05-02T14:04:04.668Z,55
2016-05-02T14:05:04.843Z,60
2016-05-02T14:06:04.690Z,60
2016-05-02T14:07:04.864Z,60
2016-05-02T14:08:04.570Z,55
2016-05-02T14:09:04.854Z,55
2016-05-02T14:10:04.857Z,55
2016-05-02T14:11:04.859Z,55
2016-05-02T14:12:04.877Z,55